Time;durP1;ratioP1;P1;durP2;ratioP2;P2;SDS_P1;SDS_P2;PMS_P1;PMS_P2;Temp;Humidity;BMP_temperature;BMP_pressure;BME280_temperature;BME280_humidity;BME280_pressure;Samples;Min_cycle;Max_cycle;Signal;HPM_P1;HPM_P2
2022/10/27 00:00:07;;;;;;;8.93;3.70;;;15.70;99.90;;;;;;5063357;28;20613;-57
2022/10/27 00:02:34;;;;;;;11.50;3.07;;;15.80;99.90;;;;;;5058906;28;20199;-62
2022/10/27 00:05:01;;;;;;;7.80;3.27;;;15.70;99.90;;;;;;5069096;28;20617;-54
2022/10/27 00:07:28;;;;;;;6.20;3.17;;;15.70;99.90;;;;;;5064612;28;20198;-54
2022/10/27 00:09:55;;;;;;;6.60;3.00;;;15.80;99.90;;;;;;5062165;28;20236;-53
2022/10/27 00:12:22;;;;;;;6.80;2.90;;;15.80;99.90;;;;;;5061223;28;20211;-53
2022/10/27 00:14:49;;;;;;;5.53;3.10;;;15.80;99.90;;;;;;5059167;28;20237;-52
2022/10/27 00:17:16;;;;;;;7.03;3.17;;;15.90;99.90;;;;;;5064624;28;20564;-54
2022/10/27 00:19:42;;;;;;;8.57;3.10;;;15.80;99.90;;;;;;5061591;28;20251;-54
2022/10/27 00:22:09;;;;;;;7.93;3.30;;;15.80;99.90;;;;;;5063968;28;20639;-53
2022/10/27 00:24:36;;;;;;;6.17;2.90;;;15.80;99.90;;;;;;5065624;28;20211;-54
2022/10/27 00:27:02;;;;;;;6.50;3.10;;;15.80;99.90;;;;;;5059005;28;20210;-54
2022/10/27 00:29:29;;;;;;;6.70;2.57;;;15.60;99.90;;;;;;5067721;28;20233;-53
2022/10/27 00:31:56;;;;;;;4.77;2.90;;;15.60;99.90;;;;;;5061332;28;20206;-54
2022/10/27 00:34:23;;;;;;;7.90;2.80;;;15.70;99.90;;;;;;5069225;28;20545;-53
2022/10/27 00:36:49;;;;;;;4.73;3.23;;;15.70;99.90;;;;;;5064491;28;20649;-54
2022/10/27 00:39:16;;;;;;;7.03;2.80;;;15.70;99.90;;;;;;5065690;28;20336;-54
2022/10/27 00:41:44;;;;;;;7.40;2.80;;;15.70;99.90;;;;;;5064697;28;20301;-54
2022/10/27 00:44:37;;;;;;;4.20;3.03;;;15.70;99.90;;;;;;5072014;28;20198;-55
2022/10/27 00:47:13;;;;;;;10.17;3.10;;;15.70;99.90;;;;;;5065279;28;20251;-53
2022/10/27 00:50:06;;;;;;;6.03;2.90;;;15.80;99.90;;;;;;5067205;28;20216;-54
2022/10/27 00:52:44;;;;;;;6.60;3.23;;;15.70;99.90;;;;;;5061497;28;20204;-53
2022/10/27 00:55:14;;;;;;;5.20;2.77;;;15.70;99.90;;;;;;5062442;28;20284;-54
2022/10/27 00:57:45;;;;;;;4.57;2.83;;;15.70;99.90;;;;;;5060551;28;20745;-54
2022/10/27 01:00:12;;;;;;;4.70;2.87;;;15.70;99.90;;;;;;5063738;28;20233;-54
2022/10/27 01:02:40;;;;;;;7.90;3.00;;;15.60;99.90;;;;;;5065126;28;20205;-53
2022/10/27 01:05:27;;;;;;;8.13;2.93;;;15.60;99.90;;;;;;5063503;28;20558;-53
2022/10/27 01:07:58;;;;;;;4.40;2.60;;;15.60;99.90;;;;;;5065076;28;20288;-54
2022/10/27 01:10:26;;;;;;;5.23;2.73;;;15.60;99.90;;;;;;5064470;28;20228;-54
2022/10/27 01:12:54;;;;;;;5.13;2.60;;;15.60;99.90;;;;;;5065510;28;20193;-54
2022/10/27 01:15:30;;;;;;;7.10;3.10;;;15.60;99.90;;;;;;5071423;28;20631;-53
2022/10/27 01:18:01;;;;;;;6.20;2.93;;;15.60;99.90;;;;;;5066241;28;20204;-53
2022/10/27 01:20:56;;;;;;;7.03;2.53;;;15.60;99.90;;;;;;5067188;28;20198;-60
2022/10/27 01:23:34;;;;;;;7.67;3.07;;;15.40;99.90;;;;;;5064487;28;20697;-53
2022/10/27 01:26:43;;;;;;;9.13;3.13;;;15.50;99.90;;;;;;5063878;28;20202;-54
2022/10/27 01:29:34;;;;;;;4.57;2.57;;;15.50;99.90;;;;;;5003144;28;20233;-52
2022/10/27 01:32:18;;;;;;;5.77;3.00;;;15.50;99.90;;;;;;5076853;28;20296;-53
2022/10/27 01:35:22;;;;;;;7.53;3.40;;;15.50;99.90;;;;;;5064643;28;20645;-53
2022/10/27 01:38:15;;;;;;;4.77;3.03;;;15.50;99.90;;;;;;5065249;28;20193;-53
2022/10/27 01:40:42;;;;;;;5.67;2.80;;;15.40;99.90;;;;;;5064908;28;20205;-53
2022/10/27 01:43:14;;;;;;;7.37;3.50;;;15.40;99.90;;;;;;5061800;28;20192;-54
2022/10/27 01:45:42;;;;;;;4.27;2.97;;;15.40;99.90;;;;;;5065325;28;20222;-54
2022/10/27 01:48:09;;;;;;;5.27;3.00;;;15.50;99.90;;;;;;5065981;28;20723;-54
2022/10/27 01:50:39;;;;;;;4.87;3.10;;;15.50;99.90;;;;;;5065647;28;20224;-53
2022/10/27 01:53:28;;;;;;;5.47;2.90;;;15.60;99.90;;;;;;5063603;28;20205;-54
2022/10/27 01:56:04;;;;;;;5.73;3.50;;;15.60;99.90;;;;;;5061800;28;20190;-54
2022/10/27 01:58:33;;;;;;;6.67;3.10;;;15.60;99.90;;;;;;5063551;28;20225;-54
2022/10/27 02:01:19;;;;;;;5.70;2.90;;;15.60;99.90;;;;;;5064406;28;20742;-54
2022/10/27 02:03:54;;;;;;;7.30;3.30;;;15.60;99.90;;;;;;5060749;28;20203;-54
2022/10/27 02:06:21;;;;;;;5.37;2.83;;;15.60;99.90;;;;;;5063493;28;20201;-54
2022/10/27 02:09:01;;;;;;;8.87;3.47;;;15.60;99.90;;;;;;5065322;28;20212;-53
2022/10/27 02:11:32;;;;;;;8.47;2.83;;;15.60;99.90;;;;;;5078871;28;20216;-56
2022/10/27 02:14:00;;;;;;;8.40;3.27;;;15.60;99.90;;;;;;5062821;28;20319;-54
2022/10/27 02:16:30;;;;;;;5.17;2.80;;;15.60;99.90;;;;;;5060412;28;20193;-53
2022/10/27 02:19:07;;;;;;;4.43;2.87;;;15.60;99.90;;;;;;5059644;28;20218;-55
2022/10/27 02:21:36;;;;;;;3.80;2.50;;;15.60;99.90;;;;;;5057040;28;20208;-53
2022/10/27 02:24:04;;;;;;;4.00;2.50;;;15.60;99.90;;;;;;5061163;28;20231;-53
2022/10/27 02:26:35;;;;;;;5.13;2.47;;;15.60;99.90;;;;;;5063459;28;20234;-55
2022/10/27 02:29:34;;;;;;;3.87;2.37;;;15.60;99.90;;;;;;5068365;28;20651;-54
2022/10/27 02:32:05;;;;;;;4.00;2.27;;;15.60;99.90;;;;;;5069607;28;20209;-53
2022/10/27 02:34:33;;;;;;;5.60;2.80;;;15.50;99.90;;;;;;5070278;28;20568;-54
2022/10/27 02:37:02;;;;;;;6.40;2.30;;;15.40;99.90;;;;;;5070997;28;20202;-56
2022/10/27 02:39:28;;;;;;;7.17;2.80;;;15.40;99.90;;;;;;5070586;28;20218;-53
2022/10/27 02:41:55;;;;;;;3.83;2.20;;;15.50;99.90;;;;;;5070616;28;20202;-54
2022/10/27 02:44:22;;;;;;;4.60;2.37;;;15.50;99.90;;;;;;5069322;28;20204;-57
2022/10/27 02:46:49;;;;;;;3.70;2.17;;;15.50;99.90;;;;;;5069053;28;20231;-54
2022/10/27 02:49:18;;;;;;;4.50;2.13;;;15.50;99.90;;;;;;5066283;28;20240;-54
2022/10/27 02:51:45;;;;;;;10.77;2.27;;;15.50;99.90;;;;;;5067192;28;20193;-54
2022/10/27 02:54:12;;;;;;;5.30;2.27;;;15.60;99.90;;;;;;5069667;28;20203;-54
2022/10/27 02:56:39;;;;;;;3.30;2.27;;;15.50;99.90;;;;;;5071088;28;20206;-54
2022/10/27 02:59:06;;;;;;;5.73;2.50;;;15.50;99.90;;;;;;5068372;28;20811;-54
2022/10/27 03:01:32;;;;;;;5.13;2.37;;;15.50;99.90;;;;;;5061204;28;20659;-54
2022/10/27 03:03:59;;;;;;;6.03;2.53;;;15.50;99.90;;;;;;5064684;28;20240;-54
2022/10/27 03:06:26;;;;;;;2.73;2.07;;;15.50;99.90;;;;;;5061624;28;20194;-54
2022/10/27 03:08:53;;;;;;;4.50;2.00;;;15.50;99.90;;;;;;5062072;28;20794;-54
2022/10/27 03:11:19;;;;;;;4.40;2.10;;;15.50;99.90;;;;;;5064367;28;20599;-53
2022/10/27 03:13:46;;;;;;;3.67;1.90;;;15.40;99.90;;;;;;5063804;28;20301;-53
2022/10/27 03:16:13;;;;;;;3.20;2.10;;;15.50;99.90;;;;;;5064288;28;20198;-54
2022/10/27 03:18:40;;;;;;;5.50;1.90;;;15.40;99.90;;;;;;5063179;28;20197;-54
2022/10/27 03:21:06;;;;;;;3.17;1.73;;;15.50;99.90;;;;;;5061901;28;20194;-53
2022/10/27 03:23:33;;;;;;;6.43;1.73;;;15.50;99.90;;;;;;5061526;28;20595;-57
2022/10/27 03:26:00;;;;;;;3.30;1.93;;;15.50;99.90;;;;;;5067482;28;20205;-54
2022/10/27 03:28:34;;;;;;;4.97;1.83;;;15.50;99.90;;;;;;5070395;28;20203;-54
2022/10/27 03:31:01;;;;;;;5.77;2.40;;;15.40;99.90;;;;;;5064406;28;20249;-53
2022/10/27 03:33:28;;;;;;;5.63;1.97;;;15.40;99.90;;;;;;5068247;28;20208;-53
2022/10/27 03:35:55;;;;;;;5.63;2.13;;;15.40;99.90;;;;;;5065557;28;20309;-53
2022/10/27 03:38:22;;;;;;;3.13;2.00;;;15.40;99.90;;;;;;5071262;28;20197;-54
2022/10/27 03:40:49;;;;;;;6.43;1.80;;;15.40;99.90;;;;;;5059620;28;20214;-53
2022/10/27 03:43:15;;;;;;;3.93;1.90;;;15.40;99.90;;;;;;5062571;28;20209;-54
2022/10/27 03:45:46;;;;;;;5.80;2.03;;;15.40;99.90;;;;;;5061668;28;20692;-53
2022/10/27 03:48:12;;;;;;;5.47;1.80;;;15.40;99.90;;;;;;5063946;28;20228;-53
2022/10/27 03:50:39;;;;;;;4.57;1.97;;;15.40;99.90;;;;;;5063434;28;20208;-54
2022/10/27 03:53:06;;;;;;;4.03;1.77;;;15.40;99.90;;;;;;5068440;28;20223;-54
2022/10/27 03:55:34;;;;;;;5.83;1.63;;;15.40;99.90;;;;;;5064419;28;20216;-53
2022/10/27 03:58:01;;;;;;;8.30;1.87;;;15.30;99.90;;;;;;5055690;28;20667;-54
2022/10/27 04:00:30;;;;;;;5.57;1.87;;;15.30;99.90;;;;;;5067568;28;20248;-53
2022/10/27 04:02:57;;;;;;;2.80;1.50;;;15.20;99.90;;;;;;5069278;28;20712;-57
2022/10/27 04:05:24;;;;;;;4.17;1.80;;;15.30;99.90;;;;;;5069007;28;20291;-54
2022/10/27 04:07:51;;;;;;;6.77;2.20;;;15.30;99.90;;;;;;5065524;28;20211;-53
2022/10/27 04:10:17;;;;;;;3.17;2.00;;;15.10;99.90;;;;;;5062946;28;20700;-53
2022/10/27 04:12:52;;;;;;;3.33;1.73;;;15.10;99.90;;;;;;5062652;28;20214;-54
2022/10/27 04:15:20;;;;;;;3.80;2.30;;;15.00;99.90;;;;;;5061589;28;20200;-54
2022/10/27 04:17:47;;;;;;;5.80;2.10;;;14.90;99.90;;;;;;5062929;28;20321;-54
2022/10/27 04:20:14;;;;;;;3.27;2.20;;;14.90;99.90;;;;;;5060461;28;20232;-54
2022/10/27 04:22:41;;;;;;;5.53;2.33;;;14.80;99.90;;;;;;5065025;28;20730;-54
2022/10/27 04:25:08;;;;;;;4.50;2.47;;;14.80;99.90;;;;;;5061200;28;20192;-54
2022/10/27 04:27:35;;;;;;;6.43;2.67;;;14.80;99.90;;;;;;5061046;28;20192;-52
2022/10/27 04:30:02;;;;;;;3.17;2.20;;;14.70;99.90;;;;;;5061167;28;20228;-53
2022/10/27 04:32:28;;;;;;;4.90;2.40;;;14.80;99.90;;;;;;5061841;28;20203;-54
2022/10/27 04:34:55;;;;;;;7.67;2.77;;;14.70;99.90;;;;;;5060026;28;20212;-53
2022/10/27 04:37:22;;;;;;;6.77;2.50;;;14.70;99.90;;;;;;5063572;28;20193;-54
2022/10/27 04:39:49;;;;;;;3.97;2.77;;;14.70;99.90;;;;;;5058272;28;22014;-52
2022/10/27 04:42:15;;;;;;;3.20;2.10;;;14.70;99.90;;;;;;5058239;28;20206;-54
2022/10/27 04:44:42;;;;;;;2.93;2.57;;;14.60;99.90;;;;;;5059823;28;20224;-53
2022/10/27 04:47:09;;;;;;;5.40;2.60;;;14.60;99.90;;;;;;5058556;28;20208;-54
2022/10/27 04:49:36;;;;;;;4.70;3.00;;;14.60;99.90;;;;;;5060674;28;20530;-53
2022/10/27 04:52:03;;;;;;;3.60;2.47;;;14.60;99.90;;;;;;5062757;28;20645;-54
2022/10/27 04:54:29;;;;;;;5.60;2.90;;;14.70;99.90;;;;;;5055415;28;20199;-54
2022/10/27 04:56:56;;;;;;;5.70;2.90;;;14.70;99.90;;;;;;5060171;28;20283;-54
2022/10/27 04:59:23;;;;;;;4.47;2.97;;;14.80;99.90;;;;;;5058731;28;20239;-53
2022/10/27 05:01:50;;;;;;;8.50;3.30;;;14.80;99.90;;;;;;5060010;28;20312;-54
2022/10/27 05:04:17;;;;;;;6.00;3.37;;;14.70;99.90;;;;;;5050208;28;20197;-54
2022/10/27 05:06:44;;;;;;;3.37;2.83;;;14.80;99.90;;;;;;5069246;28;20565;-54
2022/10/27 05:09:10;;;;;;;4.43;2.60;;;14.70;99.90;;;;;;5060762;28;20205;-54
2022/10/27 05:11:37;;;;;;;3.83;2.80;;;14.70;99.90;;;;;;5061637;28;20315;-54
2022/10/27 05:14:04;;;;;;;5.27;2.60;;;14.70;99.90;;;;;;5061896;28;20639;-54
2022/10/27 05:16:31;;;;;;;6.53;2.90;;;14.80;99.90;;;;;;5062141;28;20199;-53
2022/10/27 05:18:57;;;;;;;4.57;3.03;;;14.80;99.90;;;;;;5060342;28;20324;-53
2022/10/27 05:21:24;;;;;;;4.70;2.90;;;14.70;99.90;;;;;;5060110;28;20202;-54
2022/10/27 05:23:51;;;;;;;7.63;3.00;;;14.70;99.90;;;;;;5062321;28;20203;-54
2022/10/27 05:26:18;;;;;;;3.70;2.83;;;14.70;99.90;;;;;;5065138;28;20201;-54
2022/10/27 05:28:46;;;;;;;6.03;2.87;;;14.70;99.90;;;;;;5064060;28;20211;-54
2022/10/27 05:31:13;;;;;;;3.77;2.77;;;14.70;99.90;;;;;;5063581;28;20206;-54
2022/10/27 05:33:39;;;;;;;7.17;3.30;;;14.70;99.90;;;;;;5065574;28;20252;-53
2022/10/27 05:36:07;;;;;;;4.47;3.33;;;14.70;99.90;;;;;;5065203;28;20637;-53
2022/10/27 05:38:33;;;;;;;8.07;3.27;;;14.70;99.90;;;;;;5068200;28;20900;-53
2022/10/27 05:41:00;;;;;;;10.13;3.63;;;14.70;99.90;;;;;;5069800;28;20624;-51
2022/10/27 05:43:27;;;;;;;7.43;3.57;;;14.60;99.90;;;;;;5069110;28;20652;-52
2022/10/27 05:46:04;;;;;;;5.07;3.83;;;14.60;99.90;;;;;;5069641;28;20207;-51
2022/10/27 05:48:31;;;;;;;7.93;4.30;;;14.60;99.90;;;;;;5068421;28;20205;-52
2022/10/27 05:50:57;;;;;;;6.83;4.00;;;14.60;99.90;;;;;;5068060;28;20347;-53
2022/10/27 05:53:24;;;;;;;9.37;4.20;;;14.70;99.90;;;;;;5064091;28;20685;-53
2022/10/27 05:55:52;;;;;;;6.07;3.70;;;14.60;99.90;;;;;;5071296;28;20196;-54
2022/10/27 05:58:20;;;;;;;5.83;3.80;;;14.60;99.90;;;;;;5070686;28;20521;-57
2022/10/27 06:00:46;;;;;;;7.43;4.10;;;14.50;99.90;;;;;;5056842;28;20265;-54
2022/10/27 06:03:23;;;;;;;8.80;4.00;;;14.60;99.90;;;;;;5058710;28;20535;-53
2022/10/27 06:05:52;;;;;;;5.60;3.60;;;14.70;99.90;;;;;;5061588;28;20369;-53
2022/10/27 06:08:19;;;;;;;3.73;3.20;;;14.60;99.90;;;;;;5060493;28;20230;-53
2022/10/27 06:10:46;;;;;;;4.77;3.27;;;14.60;99.90;;;;;;5060536;28;20243;-53
2022/10/27 06:13:13;;;;;;;7.53;3.70;;;14.60;99.90;;;;;;5059055;28;20247;-53
2022/10/27 06:15:41;;;;;;;4.87;3.77;;;14.50;99.90;;;;;;5064750;28;20234;-53
2022/10/27 06:18:08;;;;;;;6.40;3.27;;;14.60;99.90;;;;;;5062548;28;20396;-53
2022/10/27 06:20:35;;;;;;;4.97;3.17;;;14.60;99.90;;;;;;5062923;28;20687;-54
2022/10/27 06:23:02;;;;;;;7.37;3.63;;;14.60;99.90;;;;;;4699083;28;10000117;-52
2022/10/27 06:25:31;;;;;;;9.10;3.90;;;14.60;99.90;;;;;;5044577;28;21187;-54
2022/10/27 06:27:58;;;;;;;4.90;3.40;;;14.50;99.90;;;;;;5058315;28;20207;-59
2022/10/27 06:30:25;;;;;;;7.70;3.57;;;14.60;99.90;;;;;;5049506;28;20224;-53
2022/10/27 06:32:54;;;;;;;5.10;3.63;;;14.50;99.90;;;;;;5057185;28;20196;-62
2022/10/27 06:35:22;;;;;;;4.50;3.50;;;14.50;99.90;;;;;;5058567;28;20203;-53
2022/10/27 06:37:49;;;;;;;6.00;3.30;;;14.50;99.90;;;;;;5058868;28;21003;-53
2022/10/27 06:40:17;;;;;;;6.73;3.70;;;14.60;99.90;;;;;;5054549;28;20199;-59
2022/10/27 06:42:49;;;;;;;6.67;3.23;;;14.60;99.90;;;;;;5059685;28;20295;-54
2022/10/27 06:45:33;;;;;;;6.33;3.20;;;14.50;99.90;;;;;;5057526;28;20204;-52
2022/10/27 06:48:00;;;;;;;7.07;3.03;;;14.50;99.90;;;;;;5052550;28;20558;-54
2022/10/27 06:50:28;;;;;;;5.70;3.23;;;14.50;99.90;;;;;;5053323;28;20223;-54
2022/10/27 06:52:55;;;;;;;4.13;3.03;;;14.50;99.90;;;;;;5056463;28;20321;-54
2022/10/27 06:55:22;;;;;;;8.57;3.53;;;14.50;99.90;;;;;;5049421;28;20204;-52
2022/10/27 06:57:48;;;;;;;4.40;3.07;;;14.50;99.90;;;;;;5056629;28;20208;-54
2022/10/27 07:00:16;;;;;;;6.03;3.00;;;14.50;99.90;;;;;;5052249;28;20228;-53
2022/10/27 07:02:43;;;;;;;3.43;2.70;;;14.50;99.90;;;;;;5057223;28;20209;-53
2022/10/27 07:05:11;;;;;;;7.87;3.20;;;14.60;99.90;;;;;;5058695;28;20619;-54
2022/10/27 07:07:38;;;;;;;5.87;2.93;;;14.60;99.90;;;;;;5058433;28;20574;-55
2022/10/27 07:10:07;;;;;;;4.50;3.10;;;14.70;99.90;;;;;;5058765;28;20309;-54
2022/10/27 07:12:34;;;;;;;7.17;3.70;;;14.80;99.90;;;;;;5052428;28;20208;-54
2022/10/27 07:15:01;;;;;;;4.37;2.97;;;14.80;99.90;;;;;;5056112;28;20206;-53
2022/10/27 07:17:27;;;;;;;5.67;3.10;;;14.80;99.90;;;;;;5055856;28;20334;-53
2022/10/27 07:19:54;;;;;;;3.73;2.83;;;14.90;99.90;;;;;;5053578;28;20199;-53
2022/10/27 07:22:21;;;;;;;6.13;2.90;;;14.90;99.90;;;;;;5061996;28;20207;-54
2022/10/27 07:24:48;;;;;;;6.10;2.60;;;14.80;99.90;;;;;;5055984;28;20307;-56
2022/10/27 07:27:15;;;;;;;5.13;2.77;;;14.90;99.90;;;;;;5053423;28;20694;-54
2022/10/27 07:29:41;;;;;;;6.80;2.97;;;14.90;99.90;;;;;;5059599;28;20205;-53
2022/10/27 07:32:08;;;;;;;5.57;2.63;;;14.90;99.90;;;;;;5055871;28;20210;-54
2022/10/27 07:34:35;;;;;;;7.40;3.10;;;14.90;99.90;;;;;;5069434;28;20287;-55
2022/10/27 07:37:02;;;;;;;4.17;2.73;;;15.00;99.90;;;;;;5068658;28;20204;-55
2022/10/27 07:39:28;;;;;;;5.23;3.10;;;15.10;99.90;;;;;;5069669;28;20195;-55
2022/10/27 07:41:55;;;;;;;6.03;2.40;;;15.20;99.90;;;;;;5069449;28;20208;-54
2022/10/27 07:44:22;;;;;;;5.93;2.70;;;15.30;99.90;;;;;;5051112;28;20246;-55
2022/10/27 07:46:49;;;;;;;5.00;3.13;;;15.40;99.90;;;;;;5069141;28;20517;-54
2022/10/27 07:49:15;;;;;;;5.30;2.60;;;15.40;99.90;;;;;;5051255;28;20331;-55
2022/10/27 07:51:42;;;;;;;3.03;2.50;;;15.60;99.90;;;;;;5068955;28;20227;-54
2022/10/27 07:54:09;;;;;;;3.60;2.63;;;15.80;99.90;;;;;;5067379;28;20661;-58
2022/10/27 07:56:36;;;;;;;5.33;2.97;;;15.80;99.90;;;;;;5068214;28;20205;-54
2022/10/27 07:59:03;;;;;;;6.80;2.53;;;16.00;99.90;;;;;;5067272;28;20197;-55
2022/10/27 08:01:30;;;;;;;4.10;2.50;;;16.10;99.90;;;;;;5057879;28;20244;-55
2022/10/27 08:03:57;;;;;;;3.50;2.70;;;16.10;99.90;;;;;;5068787;28;20298;-54
2022/10/27 08:06:24;;;;;;;3.50;2.20;;;16.20;99.90;;;;;;5060985;28;20530;-55
2022/10/27 08:08:51;;;;;;;3.30;2.40;;;16.30;99.90;;;;;;5058960;28;20205;-54
2022/10/27 08:11:18;;;;;;;4.00;2.27;;;16.30;99.90;;;;;;5065320;28;20388;-54
2022/10/27 08:13:44;;;;;;;2.83;2.23;;;16.30;99.90;;;;;;5068429;28;20213;-54
2022/10/27 08:16:11;;;;;;;3.33;1.90;;;16.30;99.90;;;;;;5067590;28;20536;-55
2022/10/27 08:18:38;;;;;;;6.27;2.17;;;16.40;99.90;;;;;;5069381;28;20204;-54
2022/10/27 08:21:05;;;;;;;4.20;2.00;;;16.50;99.90;;;;;;5087495;28;20216;-54
2022/10/27 08:23:32;;;;;;;3.93;2.00;;;16.60;99.90;;;;;;5058569;28;20213;-55
2022/10/27 08:25:58;;;;;;;6.20;2.13;;;16.70;99.90;;;;;;5068754;28;20204;-53
2022/10/27 08:28:25;;;;;;;4.00;2.07;;;16.70;99.90;;;;;;5066858;28;20201;-54
2022/10/27 08:30:52;;;;;;;6.87;2.33;;;16.80;99.90;;;;;;5068090;28;20278;-54
2022/10/27 08:33:20;;;;;;;5.63;2.30;;;16.60;99.90;;;;;;5066831;28;20197;-54
2022/10/27 08:35:49;;;;;;;4.00;1.90;;;16.80;99.90;;;;;;5068620;28;20296;-55
2022/10/27 08:38:16;;;;;;;2.93;2.10;;;17.00;99.90;;;;;;5068861;28;20239;-57
2022/10/27 08:41:05;;;;;;;4.83;2.10;;;17.40;99.90;;;;;;5067492;28;20208;-55
2022/10/27 08:43:50;;;;;;;6.10;1.97;;;17.60;99.90;;;;;;5068090;28;20206;-54
2022/10/27 08:46:35;;;;;;;4.23;2.10;;;17.80;99.90;;;;;;5065803;28;20679;-55
2022/10/27 08:49:05;;;;;;;3.90;1.90;;;17.70;99.90;;;;;;5068063;28;20300;-54
2022/10/27 08:51:34;;;;;;;5.13;1.60;;;17.70;99.90;;;;;;5068582;28;20731;-55
2022/10/27 08:54:04;;;;;;;2.43;1.30;;;17.60;99.90;;;;;;5067593;28;20918;-55
2022/10/27 08:56:40;;;;;;;4.37;1.40;;;18.00;99.90;;;;;;5066957;28;20209;-56
2022/10/27 08:59:17;;;;;;;2.23;1.60;;;18.20;99.90;;;;;;5066906;28;20203;-56
2022/10/27 09:01:53;;;;;;;2.30;1.37;;;18.20;99.90;;;;;;5070842;28;20241;-55
2022/10/27 09:04:37;;;;;;;2.07;1.50;;;18.20;99.90;;;;;;5063991;28;20204;-54
2022/10/27 09:07:19;;;;;;;3.27;1.60;;;18.40;99.90;;;;;;5070726;28;20208;-56
2022/10/27 09:09:59;;;;;;;3.27;1.37;;;18.50;99.90;;;;;;5061013;28;20228;-53
2022/10/27 09:12:50;;;;;;;2.70;1.50;;;18.50;99.90;;;;;;5072230;28;20225;-54
2022/10/27 09:15:38;;;;;;;2.77;1.57;;;18.50;99.90;;;;;;5070087;28;20293;-54
2022/10/27 09:18:32;;;;;;;2.43;1.30;;;18.60;99.90;;;;;;5074293;28;20210;-55
2022/10/27 09:21:04;;;;;;;2.00;1.50;;;18.60;99.90;;;;;;5067538;28;20210;-57
2022/10/27 09:23:42;;;;;;;4.67;1.43;;;18.50;99.90;;;;;;5061758;28;20209;-56
2022/10/27 09:26:12;;;;;;;4.43;1.23;;;18.50;99.90;;;;;;5071345;28;20204;-55
2022/10/27 09:28:53;;;;;;;4.87;1.30;;;18.60;99.90;;;;;;5070834;28;20576;-54
2022/10/27 09:31:40;;;;;;;6.30;1.57;;;18.80;99.90;;;;;;5068957;28;20219;-55
2022/10/27 09:34:15;;;;;;;2.97;1.53;;;18.70;99.90;;;;;;5070582;28;20200;-55
2022/10/27 09:36:42;;;;;;;3.03;1.43;;;18.90;99.90;;;;;;5070778;28;20200;-55
2022/10/27 09:39:09;;;;;;;1.10;0.93;;;18.90;99.90;;;;;;5069414;28;20660;-54
2022/10/27 09:41:36;;;;;;;3.27;1.10;;;18.80;99.90;;;;;;5073123;28;20202;-55
2022/10/27 09:44:10;;;;;;;2.20;0.90;;;18.80;99.90;;;;;;5072421;28;20205;-55
2022/10/27 09:46:37;;;;;;;5.43;1.13;;;18.80;99.90;;;;;;5078094;28;20292;-54
2022/10/27 09:49:05;;;;;;;2.10;1.10;;;18.90;99.90;;;;;;5071430;28;20229;-55
2022/10/27 09:51:45;;;;;;;1.43;0.97;;;19.00;99.90;;;;;;5071530;28;20212;-56
2022/10/27 09:54:38;;;;;;;2.47;1.03;;;19.10;99.90;;;;;;5069525;28;20209;-57
2022/10/27 09:57:09;;;;;;;4.17;1.10;;;19.40;99.90;;;;;;5071145;28;20203;-54
2022/10/27 09:59:37;;;;;;;5.87;1.60;;;19.40;99.90;;;;;;5069973;28;20229;-54
2022/10/27 10:02:19;;;;;;;1.43;0.90;;;19.70;99.90;;;;;;5070619;28;20228;-54
2022/10/27 10:04:46;;;;;;;3.13;1.37;;;19.80;99.90;;;;;;5071175;28;20210;-54
2022/10/27 10:07:28;;;;;;;4.27;0.90;;;19.80;99.90;;;;;;5071100;28;20262;-54
2022/10/27 10:10:01;;;;;;;1.90;1.17;;;19.90;99.90;;;;;;5066370;28;20830;-59
2022/10/27 10:12:28;;;;;;;4.90;1.30;;;20.10;99.90;;;;;;5069943;28;20213;-57
2022/10/27 10:15:10;;;;;;;2.10;1.00;;;20.20;99.90;;;;;;5069854;28;20205;-55
2022/10/27 10:17:42;;;;;;;3.10;0.93;;;20.20;99.90;;;;;;5070987;28;20657;-54
2022/10/27 10:20:33;;;;;;;4.47;1.57;;;20.10;99.90;;;;;;5071249;28;20607;-53
2022/10/27 10:23:27;;;;;;;2.43;0.90;;;20.10;99.90;;;;;;5070760;28;20212;-53
2022/10/27 10:25:57;;;;;;;2.23;1.00;;;20.10;99.90;;;;;;5070618;28;20213;-54
2022/10/27 10:28:38;;;;;;;2.87;0.93;;;19.90;99.90;;;;;;5061013;28;20215;-52
2022/10/27 10:31:08;;;;;;;3.33;0.80;;;20.00;99.90;;;;;;5081605;28;20232;-54
2022/10/27 10:33:38;;;;;;;3.23;1.20;;;20.00;99.90;;;;;;5070944;28;20723;-59
2022/10/27 10:36:29;;;;;;;4.03;1.07;;;20.10;99.90;;;;;;5070757;28;20199;-53
2022/10/27 10:38:58;;;;;;;4.70;1.30;;;20.10;99.90;;;;;;5070253;28;20558;-54
2022/10/27 10:41:29;;;;;;;1.93;0.90;;;19.90;99.90;;;;;;5060605;28;20279;-52
2022/10/27 10:44:16;;;;;;;1.60;0.80;;;19.90;99.90;;;;;;5068281;28;20206;-59
2022/10/27 10:46:54;;;;;;;1.77;0.90;;;19.90;99.90;;;;;;5070077;28;20210;-63
2022/10/27 10:49:25;;;;;;;2.90;1.10;;;19.90;99.90;;;;;;5070533;28;20210;-56
2022/10/27 10:51:55;;;;;;;3.13;1.17;;;20.10;99.90;;;;;;5070141;28;20228;-54
2022/10/27 10:54:43;;;;;;;1.97;0.90;;;20.00;99.90;;;;;;5068957;28;20315;-53
2022/10/27 10:57:42;;;;;;;3.73;1.10;;;19.90;99.90;;;;;;5068055;28;20684;-57
2022/10/27 11:00:16;;;;;;;1.33;0.90;;;20.00;99.90;;;;;;5059685;28;20260;-54
2022/10/27 11:02:59;;;;;;;1.47;0.80;;;20.00;99.90;;;;;;5061361;28;20206;-54
2022/10/27 11:05:34;;;;;;;2.00;0.80;;;20.00;99.90;;;;;;5069198;28;20222;-53
2022/10/27 11:08:13;;;;;;;3.47;1.00;;;20.00;99.90;;;;;;5085281;28;20209;-55
2022/10/27 11:10:42;;;;;;;3.23;0.90;;;20.00;99.90;;;;;;5060099;28;20683;-54
2022/10/27 11:13:19;;;;;;;4.70;1.00;;;20.00;99.90;;;;;;5069073;28;20224;-54
2022/10/27 11:16:03;;;;;;;2.87;1.13;;;20.00;99.90;;;;;;5067779;28;20210;-54
2022/10/27 11:18:49;;;;;;;4.40;1.33;;;19.90;99.90;;;;;;5067984;28;20657;-54
2022/10/27 11:21:20;;;;;;;2.40;1.00;;;19.90;99.90;;;;;;5069425;28;20211;-53
2022/10/27 11:24:16;;;;;;;3.40;1.40;;;20.00;99.90;;;;;;5069117;28;20645;-58
2022/10/27 11:26:57;;;;;;;3.50;0.97;;;19.90;99.90;;;;;;5055395;28;20216;-54
2022/10/27 11:29:45;;;;;;;4.70;1.17;;;20.00;99.90;;;;;;5068489;28;20211;-57
2022/10/27 11:32:20;;;;;;;2.07;1.10;;;19.90;99.90;;;;;;5068986;28;20228;-56
2022/10/27 11:34:53;;;;;;;1.33;0.80;;;19.80;99.90;;;;;;5067453;28;20293;-53
2022/10/27 11:37:30;;;;;;;5.07;0.90;;;19.90;99.90;;;;;;5069238;28;20233;-54
2022/10/27 11:40:04;;;;;;;3.40;1.10;;;19.90;99.90;;;;;;5068877;28;20198;-53
2022/10/27 11:42:47;;;;;;;3.43;1.20;;;19.90;99.90;;;;;;5069181;28;20229;-54
2022/10/27 11:45:27;;;;;;;3.93;1.10;;;19.90;99.90;;;;;;5067643;28;20198;-54
2022/10/27 11:48:08;;;;;;;3.10;1.00;;;20.00;99.90;;;;;;5069047;28;20301;-55
2022/10/27 11:50:41;;;;;;;3.53;1.30;;;20.00;99.90;;;;;;5068615;28;20686;-53
2022/10/27 11:53:09;;;;;;;2.50;1.00;;;20.00;99.90;;;;;;5083622;28;20625;-52
2022/10/27 11:56:17;;;;;;;1.73;0.93;;;20.00;99.90;;;;;;5068272;28;20210;-54
2022/10/27 11:58:55;;;;;;;2.87;0.97;;;20.00;99.90;;;;;;5067804;28;20329;-54
2022/10/27 12:01:44;;;;;;;2.23;1.00;;;20.00;99.90;;;;;;5062546;28;20248;-53
2022/10/27 12:04:20;;;;;;;3.00;1.03;;;20.00;99.90;;;;;;5068859;28;20251;-55
2022/10/27 12:06:50;;;;;;;2.80;1.40;;;19.90;99.90;;;;;;5084341;28;20202;-53
2022/10/27 12:09:44;;;;;;;3.13;1.10;;;20.00;99.90;;;;;;5073101;28;20225;-53
2022/10/27 12:12:14;;;;;;;9.30;1.20;;;20.00;99.90;;;;;;5067957;28;20218;-54
2022/10/27 12:15:01;;;;;;;1.53;1.00;;;19.90;99.90;;;;;;5067736;28;20756;-54
2022/10/27 12:17:37;;;;;;;2.17;1.33;;;20.00;99.90;;;;;;5068988;28;20205;-54
2022/10/27 12:20:09;;;;;;;6.63;1.50;;;20.00;99.90;;;;;;5068529;28;20594;-54
2022/10/27 12:22:42;;;;;;;2.83;1.23;;;20.00;99.90;;;;;;5063607;28;20265;-53
2022/10/27 12:25:20;;;;;;;2.73;1.17;;;19.90;99.90;;;;;;5083668;28;20572;-53
2022/10/27 12:27:50;;;;;;;3.53;1.20;;;19.90;99.90;;;;;;5066232;28;20210;-54
2022/10/27 12:30:20;;;;;;;5.93;1.23;;;19.90;99.90;;;;;;5066853;28;20259;-55
2022/10/27 12:33:12;;;;;;;5.93;1.30;;;19.90;99.90;;;;;;5065988;28;20693;-54
2022/10/27 12:36:07;;;;;;;2.17;1.23;;;19.90;99.90;;;;;;5067350;28;20662;-53
2022/10/27 12:38:43;;;;;;;4.10;1.53;;;19.80;99.90;;;;;;5069700;28;20205;-54
2022/10/27 12:41:36;;;;;;;5.00;1.57;;;19.80;99.90;;;;;;5068476;28;20222;-54
2022/10/27 12:44:37;;;;;;;4.57;1.67;;;19.80;99.90;;;;;;5064971;28;20314;-54
2022/10/27 12:47:54;;;;;;;5.63;1.60;;;19.80;99.90;;;;;;5064074;28;20210;-53
2022/10/27 12:50:39;;;;;;;3.40;1.70;;;19.80;99.90;;;;;;4982275;28;20724;-54
2022/10/27 12:53:21;;;;;;;4.57;1.70;;;19.80;99.90;;;;;;4983556;28;20221;-54
2022/10/27 12:56:10;;;;;;;4.33;1.53;;;19.70;99.90;;;;;;4986323;28;20289;-54
2022/10/27 12:58:47;;;;;;;5.00;1.73;;;19.70;99.90;;;;;;4983237;28;20209;-53
2022/10/27 13:01:41;;;;;;;4.33;1.50;;;19.70;99.90;;;;;;4981950;28;20239;-55
2022/10/27 13:04:28;;;;;;;4.47;2.13;;;19.70;99.90;;;;;;4985905;28;20692;-54
2022/10/27 13:07:40;;;;;;;4.90;1.70;;;19.70;99.90;;;;;;4986127;28;20554;-54
2022/10/27 13:10:29;;;;;;;4.53;1.60;;;19.70;99.90;;;;;;4961558;28;20273;-54
2022/10/27 13:13:19;;;;;;;3.23;1.53;;;19.70;99.90;;;;;;4980004;28;20310;-55